sensor_id;sensor_type;location;lat;lon;timestamp;temperature;humidity
12893;DHT22;6514;48.606;9.222;2023-02-10T00:01:21;-4.10;99.90
12893;DHT22;6514;48.606;9.222;2023-02-10T00:03:48;-4.10;99.90
12893;DHT22;6514;48.606;9.222;2023-02-10T00:06:18;-4.10;99.90
12893;DHT22;6514;48.606;9.222;2023-02-10T00:08:46;-4.10;99.90
12893;DHT22;6514;48.606;9.222;2023-02-10T00:11:13;-4.10;99.90
12893;DHT22;6514;48.606;9.222;2023-02-10T00:13:41;-4.00;99.90
12893;DHT22;6514;48.606;9.222;2023-02-10T00:16:12;-4.00;99.90
12893;DHT22;6514;48.606;9.222;2023-02-10T00:18:39;-4.00;99.90
12893;DHT22;6514;48.606;9.222;2023-02-10T00:21:07;-4.00;99.90
12893;DHT22;6514;48.606;9.222;2023-02-10T00:23:36;-3.90;99.90
12893;DHT22;6514;48.606;9.222;2023-02-10T00:26:03;-3.90;99.90
12893;DHT22;6514;48.606;9.222;2023-02-10T00:28:33;-3.90;99.90
12893;DHT22;6514;48.606;9.222;2023-02-10T00:31:05;-3.80;99.90
12893;DHT22;6514;48.606;9.222;2023-02-10T00:33:32;-3.90;99.90
12893;DHT22;6514;48.606;9.222;2023-02-10T00:35:59;-3.90;99.90
12893;DHT22;6514;48.606;9.222;2023-02-10T00:38:28;-3.90;99.90
12893;DHT22;6514;48.606;9.222;2023-02-10T00:41:01;-4.00;99.90
12893;DHT22;6514;48.606;9.222;2023-02-10T00:43:28;-4.00;99.90
12893;DHT22;6514;48.606;9.222;2023-02-10T00:45:55;-4.00;99.90
12893;DHT22;6514;48.606;9.222;2023-02-10T00:48:22;-4.00;99.90
12893;DHT22;6514;48.606;9.222;2023-02-10T00:50:49;-4.00;99.90
12893;DHT22;6514;48.606;9.222;2023-02-10T00:53:16;-4.10;99.90
12893;DHT22;6514;48.606;9.222;2023-02-10T00:55:43;-4.10;99.90
12893;DHT22;6514;48.606;9.222;2023-02-10T00:58:11;-4.10;99.90
12893;DHT22;6514;48.606;9.222;2023-02-10T01:00:38;-4.50;99.90
12893;DHT22;6514;48.606;9.222;2023-02-10T01:03:05;-4.10;99.90
12893;DHT22;6514;48.606;9.222;2023-02-10T01:05:32;-4.10;99.90
12893;DHT22;6514;48.606;9.222;2023-02-10T01:07:59;-4.10;99.90
12893;DHT22;6514;48.606;9.222;2023-02-10T01:10:26;-4.10;99.90
12893;DHT22;6514;48.606;9.222;2023-02-10T01:12:53;-4.10;99.90
12893;DHT22;6514;48.606;9.222;2023-02-10T01:15:22;-4.10;99.90
12893;DHT22;6514;48.606;9.222;2023-02-10T01:17:49;-4.10;99.90
12893;DHT22;6514;48.606;9.222;2023-02-10T01:20:16;-4.10;99.90
12893;DHT22;6514;48.606;9.222;2023-02-10T01:22:42;-4.10;99.90
12893;DHT22;6514;48.606;9.222;2023-02-10T01:25:09;-4.10;99.90
12893;DHT22;6514;48.606;9.222;2023-02-10T01:27:36;-4.20;99.90
12893;DHT22;6514;48.606;9.222;2023-02-10T01:30:03;-4.10;99.90
12893;DHT22;6514;48.606;9.222;2023-02-10T01:32:32;-4.10;99.90
12893;DHT22;6514;48.606;9.222;2023-02-10T01:34:59;-4.10;99.90
12893;DHT22;6514;48.606;9.222;2023-02-10T01:37:25;-4.10;99.90
12893;DHT22;6514;48.606;9.222;2023-02-10T01:39:53;-4.10;99.90
12893;DHT22;6514;48.606;9.222;2023-02-10T01:42:19;-4.10;99.90
12893;DHT22;6514;48.606;9.222;2023-02-10T01:45:12;-4.10;99.90
12893;DHT22;6514;48.606;9.222;2023-02-10T01:47:42;-4.10;99.90
12893;DHT22;6514;48.606;9.222;2023-02-10T01:50:09;-4.20;99.90
12893;DHT22;6514;48.606;9.222;2023-02-10T01:52:37;-4.20;99.90
12893;DHT22;6514;48.606;9.222;2023-02-10T01:55:07;-4.20;99.90
12893;DHT22;6514;48.606;9.222;2023-02-10T01:57:37;-4.30;99.90
12893;DHT22;6514;48.606;9.222;2023-02-10T02:00:07;-4.30;99.90
12893;DHT22;6514;48.606;9.222;2023-02-10T02:02:35;-4.30;99.90
12893;DHT22;6514;48.606;9.222;2023-02-10T02:05:21;-4.30;99.90
12893;DHT22;6514;48.606;9.222;2023-02-10T02:07:49;-4.20;99.90
12893;DHT22;6514;48.606;9.222;2023-02-10T02:10:16;-4.10;99.90
12893;DHT22;6514;48.606;9.222;2023-02-10T02:12:52;-4.10;99.90
12893;DHT22;6514;48.606;9.222;2023-02-10T02:15:26;-4.10;99.90
12893;DHT22;6514;48.606;9.222;2023-02-10T02:18:02;-4.10;99.90
12893;DHT22;6514;48.606;9.222;2023-02-10T02:24:11;-4.10;99.90
12893;DHT22;6514;48.606;9.222;2023-02-10T02:27:02;-4.10;99.90
12893;DHT22;6514;48.606;9.222;2023-02-10T02:29:59;-4.10;99.90
12893;DHT22;6514;48.606;9.222;2023-02-10T02:32:32;-4.10;99.90
12893;DHT22;6514;48.606;9.222;2023-02-10T02:35:02;-4.20;99.90
12893;DHT22;6514;48.606;9.222;2023-02-10T02:37:31;-4.20;99.90
12893;DHT22;6514;48.606;9.222;2023-02-10T02:39:59;-4.30;99.90
12893;DHT22;6514;48.606;9.222;2023-02-10T02:42:29;-4.30;99.90
12893;DHT22;6514;48.606;9.222;2023-02-10T02:44:59;-4.20;99.90
12893;DHT22;6514;48.606;9.222;2023-02-10T02:47:42;-4.20;99.90
12893;DHT22;6514;48.606;9.222;2023-02-10T02:50:22;-4.20;99.90
12893;DHT22;6514;48.606;9.222;2023-02-10T02:53:09;-4.20;99.90
12893;DHT22;6514;48.606;9.222;2023-02-10T02:55:49;-4.20;99.90
12893;DHT22;6514;48.606;9.222;2023-02-10T02:58:22;-4.20;99.90
12893;DHT22;6514;48.606;9.222;2023-02-10T03:00:53;-4.30;99.90
12893;DHT22;6514;48.606;9.222;2023-02-10T03:03:24;-4.30;99.90
12893;DHT22;6514;48.606;9.222;2023-02-10T03:05:51;-4.30;99.90
12893;DHT22;6514;48.606;9.222;2023-02-10T03:08:17;-4.30;99.90
12893;DHT22;6514;48.606;9.222;2023-02-10T03:10:44;-4.40;99.90
12893;DHT22;6514;48.606;9.222;2023-02-10T03:13:11;-4.40;99.90
12893;DHT22;6514;48.606;9.222;2023-02-10T03:15:38;-4.50;99.90
12893;DHT22;6514;48.606;9.222;2023-02-10T03:18:05;-4.50;99.90
12893;DHT22;6514;48.606;9.222;2023-02-10T03:20:33;-4.50;99.90
12893;DHT22;6514;48.606;9.222;2023-02-10T03:23:00;-4.60;99.90
12893;DHT22;6514;48.606;9.222;2023-02-10T03:25:26;-4.60;99.90
12893;DHT22;6514;48.606;9.222;2023-02-10T03:27:53;-4.60;99.90
12893;DHT22;6514;48.606;9.222;2023-02-10T03:30:20;-4.70;99.90
12893;DHT22;6514;48.606;9.222;2023-02-10T03:32:47;-4.70;99.90
12893;DHT22;6514;48.606;9.222;2023-02-10T03:35:14;-4.80;99.90
12893;DHT22;6514;48.606;9.222;2023-02-10T03:37:42;-4.80;99.90
12893;DHT22;6514;48.606;9.222;2023-02-10T03:40:10;-4.90;99.90
12893;DHT22;6514;48.606;9.222;2023-02-10T03:42:37;-4.90;99.90
12893;DHT22;6514;48.606;9.222;2023-02-10T03:45:05;-5.00;99.90
12893;DHT22;6514;48.606;9.222;2023-02-10T03:47:32;-5.00;99.90
12893;DHT22;6514;48.606;9.222;2023-02-10T03:49:59;-5.00;99.90
12893;DHT22;6514;48.606;9.222;2023-02-10T03:52:25;-4.90;99.90
12893;DHT22;6514;48.606;9.222;2023-02-10T03:54:54;-4.90;99.90
12893;DHT22;6514;48.606;9.222;2023-02-10T03:57:20;-4.90;99.90
12893;DHT22;6514;48.606;9.222;2023-02-10T03:59:47;-4.90;99.90
12893;DHT22;6514;48.606;9.222;2023-02-10T04:02:14;-4.90;99.90
12893;DHT22;6514;48.606;9.222;2023-02-10T04:04:41;-4.90;99.90
12893;DHT22;6514;48.606;9.222;2023-02-10T04:07:08;-4.90;99.90
12893;DHT22;6514;48.606;9.222;2023-02-10T04:09:35;-4.90;99.90
12893;DHT22;6514;48.606;9.222;2023-02-10T04:12:03;-5.00;99.90
12893;DHT22;6514;48.606;9.222;2023-02-10T04:14:30;-5.10;99.90
12893;DHT22;6514;48.606;9.222;2023-02-10T04:16:57;-5.20;99.90
12893;DHT22;6514;48.606;9.222;2023-02-10T04:19:24;-5.20;99.90
12893;DHT22;6514;48.606;9.222;2023-02-10T04:21:51;-5.40;99.90
12893;DHT22;6514;48.606;9.222;2023-02-10T04:24:18;-5.50;99.90
12893;DHT22;6514;48.606;9.222;2023-02-10T04:26:45;-5.50;99.90
12893;DHT22;6514;48.606;9.222;2023-02-10T04:29:13;-5.50;99.90
12893;DHT22;6514;48.606;9.222;2023-02-10T04:31:40;-5.50;99.90
12893;DHT22;6514;48.606;9.222;2023-02-10T04:34:06;-5.50;99.90
12893;DHT22;6514;48.606;9.222;2023-02-10T04:36:33;-5.40;99.90
12893;DHT22;6514;48.606;9.222;2023-02-10T04:39:00;-5.40;99.90
12893;DHT22;6514;48.606;9.222;2023-02-10T04:41:27;-5.40;99.90
12893;DHT22;6514;48.606;9.222;2023-02-10T04:43:54;-5.40;99.90
12893;DHT22;6514;48.606;9.222;2023-02-10T04:46:22;-5.40;99.90
12893;DHT22;6514;48.606;9.222;2023-02-10T04:48:48;-5.30;99.90
12893;DHT22;6514;48.606;9.222;2023-02-10T04:51:15;-5.30;99.90
12893;DHT22;6514;48.606;9.222;2023-02-10T04:53:42;-5.20;99.90
12893;DHT22;6514;48.606;9.222;2023-02-10T04:56:10;-5.20;99.90
12893;DHT22;6514;48.606;9.222;2023-02-10T04:58:36;-5.20;99.90
12893;DHT22;6514;48.606;9.222;2023-02-10T05:01:03;-5.20;99.90
12893;DHT22;6514;48.606;9.222;2023-02-10T05:03:32;-5.20;99.90
12893;DHT22;6514;48.606;9.222;2023-02-10T05:05:59;-5.20;99.90
12893;DHT22;6514;48.606;9.222;2023-02-10T05:08:26;-5.20;99.90
12893;DHT22;6514;48.606;9.222;2023-02-10T05:10:53;-5.20;99.90
12893;DHT22;6514;48.606;9.222;2023-02-10T05:13:20;-5.20;99.90
12893;DHT22;6514;48.606;9.222;2023-02-10T05:15:47;-5.20;99.90
12893;DHT22;6514;48.606;9.222;2023-02-10T05:18:13;-5.20;99.90
12893;DHT22;6514;48.606;9.222;2023-02-10T05:20:42;-5.20;99.90
12893;DHT22;6514;48.606;9.222;2023-02-10T05:23:08;-5.20;99.90
12893;DHT22;6514;48.606;9.222;2023-02-10T05:25:35;-5.20;99.90
12893;DHT22;6514;48.606;9.222;2023-02-10T05:28:02;-5.30;99.90
12893;DHT22;6514;48.606;9.222;2023-02-10T05:30:29;-5.20;99.90
12893;DHT22;6514;48.606;9.222;2023-02-10T05:32:56;-5.30;99.90
12893;DHT22;6514;48.606;9.222;2023-02-10T05:35:23;-5.30;99.90
12893;DHT22;6514;48.606;9.222;2023-02-10T05:37:51;-5.30;99.90
12893;DHT22;6514;48.606;9.222;2023-02-10T05:40:18;-5.30;99.90
12893;DHT22;6514;48.606;9.222;2023-02-10T05:42:45;-5.40;99.90
12893;DHT22;6514;48.606;9.222;2023-02-10T05:45:11;-5.40;99.90
12893;DHT22;6514;48.606;9.222;2023-02-10T05:47:38;-5.40;99.90
12893;DHT22;6514;48.606;9.222;2023-02-10T05:50:06;-5.40;99.90
12893;DHT22;6514;48.606;9.222;2023-02-10T05:52:34;-5.40;99.90
12893;DHT22;6514;48.606;9.222;2023-02-10T05:55:03;-5.40;99.90
12893;DHT22;6514;48.606;9.222;2023-02-10T05:57:30;-5.40;99.90
12893;DHT22;6514;48.606;9.222;2023-02-10T05:59:56;-5.40;99.90
12893;DHT22;6514;48.606;9.222;2023-02-10T06:02:24;-5.40;99.90
12893;DHT22;6514;48.606;9.222;2023-02-10T06:04:51;-5.50;99.90
12893;DHT22;6514;48.606;9.222;2023-02-10T06:07:18;-5.50;99.90
12893;DHT22;6514;48.606;9.222;2023-02-10T06:09:44;-5.50;99.90
12893;DHT22;6514;48.606;9.222;2023-02-10T06:12:13;-5.50;99.90
12893;DHT22;6514;48.606;9.222;2023-02-10T06:14:40;-5.50;99.90
12893;DHT22;6514;48.606;9.222;2023-02-10T06:17:07;-5.50;99.90
12893;DHT22;6514;48.606;9.222;2023-02-10T06:19:34;-5.50;99.90
12893;DHT22;6514;48.606;9.222;2023-02-10T06:22:01;-5.50;99.90
12893;DHT22;6514;48.606;9.222;2023-02-10T06:24:28;-5.40;99.90
12893;DHT22;6514;48.606;9.222;2023-02-10T06:26:55;-5.50;99.90
12893;DHT22;6514;48.606;9.222;2023-02-10T06:29:23;-5.50;99.90
12893;DHT22;6514;48.606;9.222;2023-02-10T06:31:50;-5.50;99.90
12893;DHT22;6514;48.606;9.222;2023-02-10T06:34:18;-5.50;99.90
12893;DHT22;6514;48.606;9.222;2023-02-10T06:36:44;-5.50;99.90
12893;DHT22;6514;48.606;9.222;2023-02-10T06:39:11;-5.50;99.90
12893;DHT22;6514;48.606;9.222;2023-02-10T06:41:38;-5.40;99.90
12893;DHT22;6514;48.606;9.222;2023-02-10T06:44:06;-5.40;99.90
12893;DHT22;6514;48.606;9.222;2023-02-10T06:46:35;-5.40;99.90
12893;DHT22;6514;48.606;9.222;2023-02-10T06:49:02;-5.30;99.90
12893;DHT22;6514;48.606;9.222;2023-02-10T06:51:28;-5.20;99.90
12893;DHT22;6514;48.606;9.222;2023-02-10T06:53:55;-5.20;99.90
12893;DHT22;6514;48.606;9.222;2023-02-10T06:56:22;-5.10;99.90
12893;DHT22;6514;48.606;9.222;2023-02-10T06:58:49;-5.10;99.90
12893;DHT22;6514;48.606;9.222;2023-02-10T07:01:17;-5.00;99.90
12893;DHT22;6514;48.606;9.222;2023-02-10T07:03:45;-5.00;99.90
12893;DHT22;6514;48.606;9.222;2023-02-10T07:06:12;-5.00;99.90
12893;DHT22;6514;48.606;9.222;2023-02-10T07:08:39;-4.90;99.90
12893;DHT22;6514;48.606;9.222;2023-02-10T07:11:06;-4.80;99.90
12893;DHT22;6514;48.606;9.222;2023-02-10T07:13:33;-4.70;99.90
12893;DHT22;6514;48.606;9.222;2023-02-10T07:16:01;-4.60;99.90
12893;DHT22;6514;48.606;9.222;2023-02-10T07:18:28;-4.50;99.90
12893;DHT22;6514;48.606;9.222;2023-02-10T07:20:56;-4.40;99.90
12893;DHT22;6514;48.606;9.222;2023-02-10T07:23:23;-4.20;99.90
12893;DHT22;6514;48.606;9.222;2023-02-10T07:25:50;-4.00;99.90
12893;DHT22;6514;48.606;9.222;2023-02-10T07:28:17;-3.90;99.90
12893;DHT22;6514;48.606;9.222;2023-02-10T07:30:44;-3.70;99.90
12893;DHT22;6514;48.606;9.222;2023-02-10T07:33:11;-3.40;99.90
12893;DHT22;6514;48.606;9.222;2023-02-10T07:35:38;-3.30;99.90
12893;DHT22;6514;48.606;9.222;2023-02-10T07:38:06;-3.10;99.90
12893;DHT22;6514;48.606;9.222;2023-02-10T07:40:33;-2.90;99.90
12893;DHT22;6514;48.606;9.222;2023-02-10T07:43:00;-2.70;99.90
12893;DHT22;6514;48.606;9.222;2023-02-10T07:45:27;-2.40;99.90
12893;DHT22;6514;48.606;9.222;2023-02-10T07:47:56;-2.20;99.90
12893;DHT22;6514;48.606;9.222;2023-02-10T07:50:23;-2.10;99.90
12893;DHT22;6514;48.606;9.222;2023-02-10T07:52:50;-1.90;99.90
12893;DHT22;6514;48.606;9.222;2023-02-10T07:55:19;-1.80;99.90
12893;DHT22;6514;48.606;9.222;2023-02-10T07:57:46;-1.50;99.90
12893;DHT22;6514;48.606;9.222;2023-02-10T08:02:41;-1.20;99.90
12893;DHT22;6514;48.606;9.222;2023-02-10T08:05:08;-0.90;99.90
12893;DHT22;6514;48.606;9.222;2023-02-10T08:07:35;-0.60;99.90
12893;DHT22;6514;48.606;9.222;2023-02-10T08:10:03;-0.40;99.90
12893;DHT22;6514;48.606;9.222;2023-02-10T08:12:31;-0.20;99.90
12893;DHT22;6514;48.606;9.222;2023-02-10T08:14:59;0.00;99.90
12893;DHT22;6514;48.606;9.222;2023-02-10T08:17:27;0.20;99.90
12893;DHT22;6514;48.606;9.222;2023-02-10T08:19:54;0.40;99.90
12893;DHT22;6514;48.606;9.222;2023-02-10T08:22:21;0.60;99.90
12893;DHT22;6514;48.606;9.222;2023-02-10T08:24:48;0.90;99.90
12893;DHT22;6514;48.606;9.222;2023-02-10T08:27:15;1.10;99.90
12893;DHT22;6514;48.606;9.222;2023-02-10T08:29:43;1.30;99.90
12893;DHT22;6514;48.606;9.222;2023-02-10T08:32:11;1.40;99.90
12893;DHT22;6514;48.606;9.222;2023-02-10T08:34:38;1.40;99.90
12893;DHT22;6514;48.606;9.222;2023-02-10T08:37:05;1.60;99.90
12893;DHT22;6514;48.606;9.222;2023-02-10T08:39:33;1.80;99.90
12893;DHT22;6514;48.606;9.222;2023-02-10T08:42:00;2.10;99.90
12893;DHT22;6514;48.606;9.222;2023-02-10T08:44:27;2.20;99.90
12893;DHT22;6514;48.606;9.222;2023-02-10T08:46:55;2.30;99.90
12893;DHT22;6514;48.606;9.222;2023-02-10T08:49:22;2.40;99.90
12893;DHT22;6514;48.606;9.222;2023-02-10T08:51:50;2.50;99.90
12893;DHT22;6514;48.606;9.222;2023-02-10T08:54:18;2.80;99.90
12893;DHT22;6514;48.606;9.222;2023-02-10T08:56:45;2.90;99.90
12893;DHT22;6514;48.606;9.222;2023-02-10T08:59:13;3.20;99.90
12893;DHT22;6514;48.606;9.222;2023-02-10T09:01:40;3.40;99.90
12893;DHT22;6514;48.606;9.222;2023-02-10T09:04:08;3.40;99.90
12893;DHT22;6514;48.606;9.222;2023-02-10T09:06:38;3.50;99.90
12893;DHT22;6514;48.606;9.222;2023-02-10T09:09:08;3.70;99.90
12893;DHT22;6514;48.606;9.222;2023-02-10T09:11:39;3.90;99.90
12893;DHT22;6514;48.606;9.222;2023-02-10T09:14:06;4.00;99.90
12893;DHT22;6514;48.606;9.222;2023-02-10T09:16:34;4.10;99.90
12893;DHT22;6514;48.606;9.222;2023-02-10T09:19:01;4.20;99.90
12893;DHT22;6514;48.606;9.222;2023-02-10T09:21:30;4.50;99.90
12893;DHT22;6514;48.606;9.222;2023-02-10T09:23:57;4.70;99.90
12893;DHT22;6514;48.606;9.222;2023-02-10T09:26:24;4.90;99.90
12893;DHT22;6514;48.606;9.222;2023-02-10T09:28:51;5.10;99.90
12893;DHT22;6514;48.606;9.222;2023-02-10T09:31:18;5.30;99.90
12893;DHT22;6514;48.606;9.222;2023-02-10T09:33:45;5.40;99.90
12893;DHT22;6514;48.606;9.222;2023-02-10T09:36:15;5.60;99.90
12893;DHT22;6514;48.606;9.222;2023-02-10T09:38:43;5.80;99.90
12893;DHT22;6514;48.606;9.222;2023-02-10T09:41:19;5.80;99.90
12893;DHT22;6514;48.606;9.222;2023-02-10T09:44:01;6.00;99.90
12893;DHT22;6514;48.606;9.222;2023-02-10T09:46:41;5.90;99.90
12893;DHT22;6514;48.606;9.222;2023-02-10T09:49:21;6.00;99.90
12893;DHT22;6514;48.606;9.222;2023-02-10T09:51:59;6.10;99.90
12893;DHT22;6514;48.606;9.222;2023-02-10T09:54:30;6.20;99.90
12893;DHT22;6514;48.606;9.222;2023-02-10T09:57:02;6.20;99.90
12893;DHT22;6514;48.606;9.222;2023-02-10T09:59:32;6.00;99.90
12893;DHT22;6514;48.606;9.222;2023-02-10T10:02:07;6.10;99.90
12893;DHT22;6514;48.606;9.222;2023-02-10T10:04:37;6.20;99.90
12893;DHT22;6514;48.606;9.222;2023-02-10T10:07:15;6.50;99.90
12893;DHT22;6514;48.606;9.222;2023-02-10T10:09:52;6.60;99.90
12893;DHT22;6514;48.606;9.222;2023-02-10T10:12:21;6.90;99.90
12893;DHT22;6514;48.606;9.222;2023-02-10T10:14:48;6.90;99.90
12893;DHT22;6514;48.606;9.222;2023-02-10T10:17:29;7.10;99.90
12893;DHT22;6514;48.606;9.222;2023-02-10T10:20:15;7.10;99.90
12893;DHT22;6514;48.606;9.222;2023-02-10T10:22:52;7.20;99.90
12893;DHT22;6514;48.606;9.222;2023-02-10T10:25:43;7.40;99.90
12893;DHT22;6514;48.606;9.222;2023-02-10T10:28:23;7.70;99.90
12893;DHT22;6514;48.606;9.222;2023-02-10T10:30:56;7.80;99.90
12893;DHT22;6514;48.606;9.222;2023-02-10T10:33:29;8.20;99.90
12893;DHT22;6514;48.606;9.222;2023-02-10T10:35:59;8.00;99.90
12893;DHT22;6514;48.606;9.222;2023-02-10T10:38:30;7.90;99.90
12893;DHT22;6514;48.606;9.222;2023-02-10T10:41:03;8.00;99.90
12893;DHT22;6514;48.606;9.222;2023-02-10T10:43:35;8.10;99.90
12893;DHT22;6514;48.606;9.222;2023-02-10T10:46:06;8.20;99.90
12893;DHT22;6514;48.606;9.222;2023-02-10T10:48:36;8.40;99.90
12893;DHT22;6514;48.606;9.222;2023-02-10T10:51:04;8.30;99.90
12893;DHT22;6514;48.606;9.222;2023-02-10T10:53:37;8.40;99.90
12893;DHT22;6514;48.606;9.222;2023-02-10T10:56:12;8.50;99.90
12893;DHT22;6514;48.606;9.222;2023-02-10T10:58:41;8.40;99.90
12893;DHT22;6514;48.606;9.222;2023-02-10T11:01:11;8.40;99.90
12893;DHT22;6514;48.606;9.222;2023-02-10T11:03:39;8.50;99.90
12893;DHT22;6514;48.606;9.222;2023-02-10T11:06:08;8.60;99.90
12893;DHT22;6514;48.606;9.222;2023-02-10T11:08:38;8.60;99.90
12893;DHT22;6514;48.606;9.222;2023-02-10T11:11:10;8.60;99.90
12893;DHT22;6514;48.606;9.222;2023-02-10T11:13:40;8.80;99.90
12893;DHT22;6514;48.606;9.222;2023-02-10T11:16:11;8.90;99.90
12893;DHT22;6514;48.606;9.222;2023-02-10T11:18:51;9.00;99.90
12893;DHT22;6514;48.606;9.222;2023-02-10T11:21:18;9.30;99.90
12893;DHT22;6514;48.606;9.222;2023-02-10T11:23:51;9.40;99.90
12893;DHT22;6514;48.606;9.222;2023-02-10T11:26:21;9.40;99.90
12893;DHT22;6514;48.606;9.222;2023-02-10T11:28:49;9.50;99.90
12893;DHT22;6514;48.606;9.222;2023-02-10T11:31:28;9.60;99.90
12893;DHT22;6514;48.606;9.222;2023-02-10T11:34:00;9.70;99.90
12893;DHT22;6514;48.606;9.222;2023-02-10T11:36:33;9.80;99.90
12893;DHT22;6514;48.606;9.222;2023-02-10T11:39:03;9.90;99.90
12893;DHT22;6514;48.606;9.222;2023-02-10T11:41:33;9.80;99.90
12893;DHT22;6514;48.606;9.222;2023-02-10T11:44:01;9.90;99.90
12893;DHT22;6514;48.606;9.222;2023-02-10T11:46:30;10.10;99.90
12893;DHT22;6514;48.606;9.222;2023-02-10T11:48:59;10.10;99.90
12893;DHT22;6514;48.606;9.222;2023-02-10T11:51:26;10.20;99.90
12893;DHT22;6514;48.606;9.222;2023-02-10T11:53:53;10.30;99.90
12893;DHT22;6514;48.606;9.222;2023-02-10T11:56:24;10.30;99.90
12893;DHT22;6514;48.606;9.222;2023-02-10T11:59:21;10.30;99.90
12893;DHT22;6514;48.606;9.222;2023-02-10T12:01:54;10.40;99.90
12893;DHT22;6514;48.606;9.222;2023-02-10T12:04:48;10.40;99.90
12893;DHT22;6514;48.606;9.222;2023-02-10T12:07:25;10.40;99.90
12893;DHT22;6514;48.606;9.222;2023-02-10T12:10:02;10.30;99.90
12893;DHT22;6514;48.606;9.222;2023-02-10T12:12:37;10.40;99.90
12893;DHT22;6514;48.606;9.222;2023-02-10T12:15:18;10.70;99.90
12893;DHT22;6514;48.606;9.222;2023-02-10T12:18:00;11.40;99.90
12893;DHT22;6514;48.606;9.222;2023-02-10T12:20:41;11.80;99.90
12893;DHT22;6514;48.606;9.222;2023-02-10T12:23:35;12.40;99.90
12893;DHT22;6514;48.606;9.222;2023-02-10T12:26:15;12.50;99.90
12893;DHT22;6514;48.606;9.222;2023-02-10T12:28:53;12.90;99.90
12893;DHT22;6514;48.606;9.222;2023-02-10T12:31:34;12.90;99.90
12893;DHT22;6514;48.606;9.222;2023-02-10T12:34:22;12.60;99.90
12893;DHT22;6514;48.606;9.222;2023-02-10T12:37:02;12.20;99.90
12893;DHT22;6514;48.606;9.222;2023-02-10T12:39:37;11.80;99.90
12893;DHT22;6514;48.606;9.222;2023-02-10T12:42:15;11.40;99.90
12893;DHT22;6514;48.606;9.222;2023-02-10T12:44:55;10.70;99.90
12893;DHT22;6514;48.606;9.222;2023-02-10T12:47:34;10.50;99.90
12893;DHT22;6514;48.606;9.222;2023-02-10T12:50:36;10.20;99.90
12893;DHT22;6514;48.606;9.222;2023-02-10T12:53:11;9.70;99.90
12893;DHT22;6514;48.606;9.222;2023-02-10T12:55:48;9.60;99.90
12893;DHT22;6514;48.606;9.222;2023-02-10T12:58:20;9.40;99.90
12893;DHT22;6514;48.606;9.222;2023-02-10T13:00:52;9.30;99.90
12893;DHT22;6514;48.606;9.222;2023-02-10T13:03:26;9.40;99.90
12893;DHT22;6514;48.606;9.222;2023-02-10T13:06:02;9.20;99.90
12893;DHT22;6514;48.606;9.222;2023-02-10T13:08:35;9.10;99.90
12893;DHT22;6514;48.606;9.222;2023-02-10T13:11:09;9.20;99.90
12893;DHT22;6514;48.606;9.222;2023-02-10T13:13:38;9.20;99.90
12893;DHT22;6514;48.606;9.222;2023-02-10T13:16:10;9.10;99.90
12893;DHT22;6514;48.606;9.222;2023-02-10T13:18:46;9.00;99.90
12893;DHT22;6514;48.606;9.222;2023-02-10T13:21:22;8.90;99.90
12893;DHT22;6514;48.606;9.222;2023-02-10T13:23:53;8.90;99.90
12893;DHT22;6514;48.606;9.222;2023-02-10T13:26:36;8.80;99.90
12893;DHT22;6514;48.606;9.222;2023-02-10T13:29:13;8.90;99.90
12893;DHT22;6514;48.606;9.222;2023-02-10T13:34:34;9.00;99.90
12893;DHT22;6514;48.606;9.222;2023-02-10T13:37:05;9.00;99.90
12893;DHT22;6514;48.606;9.222;2023-02-10T13:39:35;8.80;99.90
12893;DHT22;6514;48.606;9.222;2023-02-10T13:42:07;8.70;99.90
12893;DHT22;6514;48.606;9.222;2023-02-10T13:44:37;8.60;99.90
12893;DHT22;6514;48.606;9.222;2023-02-10T13:47:14;8.40;99.90
12893;DHT22;6514;48.606;9.222;2023-02-10T13:49:52;8.40;99.90
12893;DHT22;6514;48.606;9.222;2023-02-10T13:52:22;8.30;99.90
12893;DHT22;6514;48.606;9.222;2023-02-10T13:54:55;8.10;99.90
12893;DHT22;6514;48.606;9.222;2023-02-10T13:57:24;8.00;99.90
12893;DHT22;6514;48.606;9.222;2023-02-10T13:59:51;8.00;99.90
12893;DHT22;6514;48.606;9.222;2023-02-10T14:02:20;8.00;99.90
12893;DHT22;6514;48.606;9.222;2023-02-10T14:04:51;7.90;99.90
12893;DHT22;6514;48.606;9.222;2023-02-10T14:07:34;8.00;99.90
12893;DHT22;6514;48.606;9.222;2023-02-10T14:12:54;7.80;99.90
12893;DHT22;6514;48.606;9.222;2023-02-10T14:15:23;7.80;99.90
12893;DHT22;6514;48.606;9.222;2023-02-10T14:17:56;7.70;99.90
12893;DHT22;6514;48.606;9.222;2023-02-10T14:20:29;7.60;99.90
12893;DHT22;6514;48.606;9.222;2023-02-10T14:22:58;7.50;99.90
12893;DHT22;6514;48.606;9.222;2023-02-10T14:25:32;7.60;99.90
12893;DHT22;6514;48.606;9.222;2023-02-10T14:28:01;7.50;99.90
12893;DHT22;6514;48.606;9.222;2023-02-10T14:30:37;7.40;99.90
12893;DHT22;6514;48.606;9.222;2023-02-10T14:33:06;7.40;99.90
12893;DHT22;6514;48.606;9.222;2023-02-10T14:35:35;7.20;99.90
12893;DHT22;6514;48.606;9.222;2023-02-10T14:38:03;7.10;99.90
12893;DHT22;6514;48.606;9.222;2023-02-10T14:40:31;6.90;99.90
12893;DHT22;6514;48.606;9.222;2023-02-10T14:43:00;6.80;99.90
12893;DHT22;6514;48.606;9.222;2023-02-10T14:45:28;6.80;99.90
12893;DHT22;6514;48.606;9.222;2023-02-10T14:47:57;6.80;99.90
12893;DHT22;6514;48.606;9.222;2023-02-10T14:50:26;6.70;99.90
12893;DHT22;6514;48.606;9.222;2023-02-10T14:52:54;6.80;99.90
12893;DHT22;6514;48.606;9.222;2023-02-10T14:55:26;6.80;99.90
12893;DHT22;6514;48.606;9.222;2023-02-10T14:57:56;6.80;99.90
12893;DHT22;6514;48.606;9.222;2023-02-10T15:00:24;6.70;99.90
12893;DHT22;6514;48.606;9.222;2023-02-10T15:02:57;6.70;99.90
12893;DHT22;6514;48.606;9.222;2023-02-10T15:05:26;6.70;99.90
12893;DHT22;6514;48.606;9.222;2023-02-10T15:07:59;6.60;99.90
12893;DHT22;6514;48.606;9.222;2023-02-10T15:10:30;6.50;99.90
12893;DHT22;6514;48.606;9.222;2023-02-10T15:13:00;6.50;99.90
12893;DHT22;6514;48.606;9.222;2023-02-10T15:15:30;6.40;99.90
12893;DHT22;6514;48.606;9.222;2023-02-10T15:18:01;6.40;99.90
12893;DHT22;6514;48.606;9.222;2023-02-10T15:20:30;6.30;99.90
12893;DHT22;6514;48.606;9.222;2023-02-10T15:23:12;6.20;99.90
12893;DHT22;6514;48.606;9.222;2023-02-10T15:25:39;6.20;99.90
12893;DHT22;6514;48.606;9.222;2023-02-10T15:28:21;6.10;99.90
12893;DHT22;6514;48.606;9.222;2023-02-10T15:30:57;6.00;99.90
12893;DHT22;6514;48.606;9.222;2023-02-10T15:33:26;5.90;99.90
12893;DHT22;6514;48.606;9.222;2023-02-10T15:35:55;5.80;99.90
12893;DHT22;6514;48.606;9.222;2023-02-10T15:38:25;5.70;99.90
12893;DHT22;6514;48.606;9.222;2023-02-10T15:40:54;5.70;99.90
12893;DHT22;6514;48.606;9.222;2023-02-10T15:43:26;5.60;99.90
12893;DHT22;6514;48.606;9.222;2023-02-10T15:46:05;5.50;99.90
12893;DHT22;6514;48.606;9.222;2023-02-10T15:48:32;5.30;99.90
12893;DHT22;6514;48.606;9.222;2023-02-10T15:50:59;5.20;99.90
12893;DHT22;6514;48.606;9.222;2023-02-10T15:53:27;5.10;99.90
12893;DHT22;6514;48.606;9.222;2023-02-10T15:55:54;5.00;99.90
12893;DHT22;6514;48.606;9.222;2023-02-10T15:58:21;4.80;99.90
12893;DHT22;6514;48.606;9.222;2023-02-10T16:00:48;4.70;99.90
12893;DHT22;6514;48.606;9.222;2023-02-10T16:03:16;4.50;99.90
12893;DHT22;6514;48.606;9.222;2023-02-10T16:05:43;4.30;99.90
12893;DHT22;6514;48.606;9.222;2023-02-10T16:08:17;4.10;99.90
12893;DHT22;6514;48.606;9.222;2023-02-10T16:10:46;3.90;99.90
12893;DHT22;6514;48.606;9.222;2023-02-10T16:13:15;3.70;99.90
12893;DHT22;6514;48.606;9.222;2023-02-10T16:15:42;3.40;99.90
12893;DHT22;6514;48.606;9.222;2023-02-10T16:18:12;3.20;99.90
12893;DHT22;6514;48.606;9.222;2023-02-10T16:20:40;3.00;99.90
12893;DHT22;6514;48.606;9.222;2023-02-10T16:23:12;2.70;99.90